This is the latest recevied weather packets stored in our database for station/object N4OGP-WX. If no packets are shown the sender has not sent any weather packets the latest 10 day(s).
| Time | Temp. | Humidity | Pressure | Rain* | Wind** | Luminosity | Snow |
|---|---|---|---|---|---|---|---|
| 1777413618 | 25.56° C | 82% | 1014.8 hPa | 0 mm | - | - | - |
| 1777413558 | 25.56° C | 82% | 1014.8 hPa | 0 mm | - | - | - |
| 1777413468 | 25.56° C | 82% | 1014.9 hPa | 0 mm | - | - | - |
| 1777413408 | 25.56° C | 82% | 1014.9 hPa | 0 mm | - | - | - |
| 1777413318 | 23.89° C | 42% | 1020.4 hPa | 0 mm | - | - | - |
| 1777413228 | 25.56° C | 82% | 1015 hPa | 0 mm | - | - | - |
| 1777413168 | 23.89° C | 42% | 1020.4 hPa | 0 mm | - | - | - |
| 1777413108 | 25.56° C | 82% | 1015 hPa | 0 mm | - | - | - |
| 1777413048 | 25.56° C | 81% | 1015 hPa | 0 mm | - | - | - |
| 1777412988 | 25.56° C | 82% | 1015 hPa | 0 mm | - | - | - |
| 1777412898 | 25° C | 82% | 1015.1 hPa | 0 mm | - | - | - |
| 1777412838 | 25° C | 82% | 1015.1 hPa | 0 mm | - | - | - |
| 1777412778 | 23.89° C | 42% | 1020.4 hPa | 0 mm | - | - | - |
| 1777412718 | 23.89° C | 42% | 1020.4 hPa | 0 mm | - | - | - |
| 1777412628 | 25° C | 83% | 1015.1 hPa | 0 mm | - | - | - |
| 1777412568 | 23.89° C | 42% | 1020.4 hPa | 0 mm | - | - | - |
| 1777412478 | 23.89° C | 42% | 1020.4 hPa | 0 mm | - | - | - |
| 1777412418 | 23.89° C | 42% | 1020.4 hPa | 0 mm | - | - | - |
| 1777412328 | 23.89° C | 42% | 1020.4 hPa | 0 mm | - | - | - |
| 1777412268 | 23.89° C | 42% | 1020.4 hPa | 0 mm | - | - | - |
| 1777412208 | 25° C | 84% | 1015.1 hPa | 0 mm | - | - | - |
| 1777412118 | 25° C | 84% | 1015.1 hPa | 0 mm | - | - | - |
| 1777412058 | 25° C | 84% | 1015.1 hPa | 0 mm | - | - | - |
| 1777411998 | 23.89° C | 42% | 1020.4 hPa | 0 mm | - | - | - |
| 1777411908 | 23.89° C | 42% | 1020.4 hPa | 0 mm | - | - | - |
* Rain latest hour (hover to see other rain measurements)
** Current wind speed in m/s (hover to see current wind gust speed)